Time;durP1;ratioP1;P1;durP2;ratioP2;P2;SDS_P1;SDS_P2;PMS_P1;PMS_P2;Temp;Humidity;BMP_temperature;BMP_pressure;BME280_temperature;BME280_humidity;BME280_pressure;Samples;Min_cycle;Max_cycle;Signal;HPM_P1;HPM_P2
2021/05/23 00:02:08;;;;;;;2.17;1.25;;;11.10;99.90;;;;;;5080529;28;20055;-76
2021/05/23 00:04:34;;;;;;;2.90;1.52;;;11.10;99.90;;;;;;5063586;28;20037;-75
2021/05/23 00:07:00;;;;;;;4.50;1.80;;;11.10;99.90;;;;;;5064001;28;20477;-75
2021/05/23 00:09:26;;;;;;;4.95;1.50;;;10.90;99.90;;;;;;5060612;28;20111;-75
2021/05/23 00:11:52;;;;;;;2.08;1.00;;;10.90;99.90;;;;;;5056820;28;20028;-74
2021/05/23 00:14:19;;;;;;;3.95;1.30;;;11.20;99.90;;;;;;5061446;28;20048;-75
2021/05/23 00:16:45;;;;;;;3.95;1.42;;;10.90;99.90;;;;;;5064382;28;20082;-75
2021/05/23 00:19:10;;;;;;;5.45;1.55;;;10.70;99.90;;;;;;5063763;28;20060;-75
2021/05/23 00:21:36;;;;;;;3.35;1.58;;;10.90;99.90;;;;;;5051129;28;20029;-75
2021/05/23 00:24:02;;;;;;;4.80;1.52;;;10.70;99.90;;;;;;5061117;28;20078;-75
2021/05/23 00:26:28;;;;;;;7.57;1.20;;;11.00;99.90;;;;;;5061640;28;20044;-76
2021/05/23 00:28:53;;;;;;;3.15;1.63;;;10.80;99.90;;;;;;5063228;28;20052;-75
2021/05/23 00:31:19;;;;;;;2.90;1.35;;;10.90;99.90;;;;;;5061187;28;20473;-76
2021/05/23 00:33:45;;;;;;;3.88;1.83;;;10.70;99.90;;;;;;5063422;28;20452;-75
2021/05/23 00:36:11;;;;;;;2.55;1.13;;;11.00;99.90;;;;;;5066317;28;20028;-75
2021/05/23 00:38:39;;;;;;;3.65;1.30;;;11.20;99.90;;;;;;5060413;28;20021;-75
2021/05/23 00:41:04;;;;;;;5.13;1.73;;;11.20;99.90;;;;;;5061162;28;20020;-75
2021/05/23 00:43:30;;;;;;;2.05;1.30;;;11.30;99.90;;;;;;5061351;28;20028;-75
2021/05/23 00:45:56;;;;;;;2.72;1.13;;;11.20;99.90;;;;;;5060450;28;20064;-76
2021/05/23 00:48:23;;;;;;;4.15;1.60;;;11.20;99.90;;;;;;5063772;28;20025;-75
2021/05/23 00:50:49;;;;;;;5.68;1.30;;;11.10;99.90;;;;;;5058755;28;20024;-75
2021/05/23 00:53:16;;;;;;;6.70;1.40;;;11.20;99.90;;;;;;5063070;28;20021;-75
2021/05/23 00:55:42;;;;;;;3.55;1.40;;;11.20;99.90;;;;;;5060690;28;20740;-75
2021/05/23 00:58:08;;;;;;;3.85;1.40;;;11.10;99.90;;;;;;5064364;28;20100;-75
2021/05/23 01:00:40;;;;;;;3.75;1.42;;;11.10;99.90;;;;;;5063296;28;20135;-75
2021/05/23 01:03:29;;;;;;;3.88;1.52;;;11.10;99.90;;;;;;5064588;28;20040;-75
2021/05/23 01:06:04;;;;;;;3.83;1.48;;;11.00;99.90;;;;;;5054863;28;20028;-75
2021/05/23 01:08:31;;;;;;;2.40;1.60;;;11.00;99.90;;;;;;5062795;28;20381;-75
2021/05/23 01:11:02;;;;;;;4.97;1.17;;;11.00;99.90;;;;;;5055882;28;20382;-75
2021/05/23 01:13:34;;;;;;;2.33;1.25;;;10.90;99.90;;;;;;5051638;28;20485;-75
2021/05/23 01:16:06;;;;;;;3.75;1.48;;;10.80;99.90;;;;;;5055178;28;20059;-75
2021/05/23 01:18:49;;;;;;;4.78;1.63;;;10.90;99.90;;;;;;5063061;28;20032;-75
2021/05/23 01:21:18;;;;;;;5.10;1.70;;;10.90;99.90;;;;;;5049856;28;20394;-75
2021/05/23 01:23:52;;;;;;;4.10;1.70;;;10.90;99.90;;;;;;5062015;28;20100;-75
2021/05/23 01:26:18;;;;;;;4.50;1.20;;;10.90;99.90;;;;;;5050981;28;20028;-75
2021/05/23 01:29:04;;;;;;;2.00;1.33;;;10.70;99.90;;;;;;5061936;28;20017;-74
2021/05/23 01:31:32;;;;;;;2.85;1.45;;;10.60;99.90;;;;;;5067370;28;20044;-75
2021/05/23 01:33:59;;;;;;;2.88;1.48;;;10.60;99.90;;;;;;5059317;28;20689;-75
2021/05/23 01:36:30;;;;;;;2.00;1.38;;;10.60;99.90;;;;;;5056134;28;20061;-75
2021/05/23 01:38:56;;;;;;;1.90;1.17;;;10.70;99.90;;;;;;5041574;28;20025;-75
2021/05/23 01:41:23;;;;;;;2.92;1.10;;;10.60;99.90;;;;;;5056953;28;20067;-75
2021/05/23 01:43:49;;;;;;;4.07;1.33;;;10.80;99.90;;;;;;5056840;28;20516;-75
2021/05/23 01:46:16;;;;;;;2.78;1.27;;;10.80;99.90;;;;;;5053857;28;20040;-75
2021/05/23 01:48:42;;;;;;;5.68;1.25;;;10.70;99.90;;;;;;5060763;28;20060;-74
2021/05/23 01:51:08;;;;;;;5.05;1.40;;;10.90;99.90;;;;;;5060477;28;20056;-75
2021/05/23 01:53:36;;;;;;;3.78;1.42;;;10.90;99.90;;;;;;5060026;28;20021;-75
2021/05/23 01:56:03;;;;;;;4.18;1.20;;;10.90;99.90;;;;;;5058931;28;20045;-74
2021/05/23 01:58:28;;;;;;;2.65;1.33;;;11.00;99.90;;;;;;5060988;28;20543;-75
2021/05/23 02:00:54;;;;;;;1.80;1.10;;;11.00;99.90;;;;;;5056739;28;20028;-75
2021/05/23 02:03:22;;;;;;;4.07;1.15;;;10.80;99.90;;;;;;5062617;28;20060;-75
2021/05/23 02:05:50;;;;;;;5.50;1.50;;;10.80;99.90;;;;;;5063249;28;20506;-75
2021/05/23 02:08:19;;;;;;;2.58;1.10;;;10.80;99.90;;;;;;5062654;28;20021;-75
2021/05/23 02:10:47;;;;;;;5.38;1.63;;;10.90;99.90;;;;;;5058104;28;20037;-75
2021/05/23 02:13:14;;;;;;;4.07;0.75;;;10.70;99.90;;;;;;5063027;28;20224;-75
2021/05/23 02:15:40;;;;;;;3.60;1.60;;;10.90;99.90;;;;;;5039563;28;20112;-75
2021/05/23 02:18:06;;;;;;;2.65;1.60;;;10.70;99.90;;;;;;5057739;28;20120;-75
2021/05/23 02:20:33;;;;;;;4.45;1.65;;;10.70;99.90;;;;;;5049425;28;20053;-75
2021/05/23 02:23:01;;;;;;;3.75;1.48;;;10.70;99.90;;;;;;5064300;28;20489;-76
2021/05/23 02:25:29;;;;;;;1.92;1.17;;;10.50;99.90;;;;;;5057610;28;20039;-75
2021/05/23 02:27:58;;;;;;;3.25;1.23;;;10.50;99.90;;;;;;5061989;28;20024;-76
2021/05/23 02:30:26;;;;;;;2.65;1.48;;;10.40;99.90;;;;;;5057810;28;20025;-75
2021/05/23 02:32:53;;;;;;;2.85;1.40;;;10.40;99.90;;;;;;5047493;28;20013;-75
2021/05/23 02:35:21;;;;;;;4.20;1.48;;;10.50;99.90;;;;;;5053323;28;20021;-75
2021/05/23 02:37:48;;;;;;;4.72;1.00;;;10.60;99.90;;;;;;5064594;28;20033;-75
2021/05/23 02:40:16;;;;;;;4.47;1.40;;;10.50;99.90;;;;;;5052010;28;20052;-76
2021/05/23 02:42:42;;;;;;;3.53;1.42;;;10.40;99.90;;;;;;5065209;28;20020;-75
2021/05/23 02:45:10;;;;;;;2.30;1.13;;;10.40;99.90;;;;;;5057352;28;20032;-75
2021/05/23 02:47:38;;;;;;;3.53;1.45;;;10.50;99.90;;;;;;5065722;28;20437;-75
2021/05/23 02:50:08;;;;;;;3.88;1.50;;;10.40;99.90;;;;;;5060695;28;20025;-76
2021/05/23 02:52:34;;;;;;;3.30;1.70;;;10.20;99.90;;;;;;5062127;28;20032;-76
2021/05/23 02:54:59;;;;;;;4.28;1.67;;;10.30;99.90;;;;;;5052524;28;20021;-75
2021/05/23 02:57:25;;;;;;;4.03;1.55;;;10.20;99.90;;;;;;5061751;28;20044;-75
2021/05/23 02:59:51;;;;;;;2.80;1.60;;;10.20;99.90;;;;;;5057112;28;20028;-75
2021/05/23 03:02:16;;;;;;;4.22;1.27;;;10.10;99.90;;;;;;5071609;28;20050;-76
2021/05/23 03:04:42;;;;;;;1.80;1.25;;;10.10;99.90;;;;;;5058825;28;20341;-75
2021/05/23 03:07:08;;;;;;;8.05;1.60;;;10.00;99.90;;;;;;5071477;28;20100;-75
2021/05/23 03:09:33;;;;;;;3.25;1.60;;;10.00;99.90;;;;;;5057494;28;20043;-75
2021/05/23 03:11:59;;;;;;;3.58;1.65;;;9.90;99.90;;;;;;5069844;28;20595;-75
2021/05/23 03:14:25;;;;;;;4.97;1.50;;;9.90;99.90;;;;;;5057851;28;20047;-75
2021/05/23 03:16:51;;;;;;;2.83;1.38;;;9.90;99.90;;;;;;5039473;28;20592;-74
2021/05/23 03:19:16;;;;;;;6.20;1.80;;;9.80;99.90;;;;;;5057602;28;20029;-75
2021/05/23 03:21:42;;;;;;;3.88;1.83;;;9.90;99.90;;;;;;5044172;28;20031;-74
2021/05/23 03:24:08;;;;;;;2.90;1.60;;;9.80;99.90;;;;;;5046290;28;20029;-74
2021/05/23 03:26:34;;;;;;;4.18;1.98;;;10.00;99.90;;;;;;5054927;28;20060;-74
2021/05/23 03:29:00;;;;;;;3.78;1.83;;;10.00;99.90;;;;;;5049394;28;20055;-74
2021/05/23 03:31:26;;;;;;;3.97;1.90;;;10.00;99.90;;;;;;5052774;28;20092;-74
2021/05/23 03:33:52;;;;;;;3.85;1.75;;;10.00;99.90;;;;;;5056718;28;20024;-74
2021/05/23 03:36:18;;;;;;;2.97;1.45;;;10.00;99.90;;;;;;5053003;28;20128;-74
2021/05/23 03:38:44;;;;;;;4.88;1.30;;;9.90;99.90;;;;;;5054938;28;20024;-74
2021/05/23 03:41:11;;;;;;;5.28;1.65;;;9.80;99.90;;;;;;5058344;28;20067;-74
2021/05/23 03:43:37;;;;;;;2.38;1.45;;;9.70;99.90;;;;;;5068465;28;20016;-74
2021/05/23 03:46:02;;;;;;;1.77;1.48;;;9.90;99.90;;;;;;5062375;28;20607;-73
2021/05/23 03:48:28;;;;;;;3.75;1.27;;;9.70;99.90;;;;;;5064395;28;20025;-74
2021/05/23 03:50:54;;;;;;;2.72;1.50;;;9.90;99.90;;;;;;5058099;28;20158;-74
2021/05/23 03:53:19;;;;;;;2.85;1.33;;;9.80;99.90;;;;;;5053430;28;20104;-74
2021/05/23 03:55:45;;;;;;;2.72;1.33;;;9.90;99.90;;;;;;5069346;28;20569;-73
2021/05/23 03:58:11;;;;;;;2.97;1.42;;;9.60;99.90;;;;;;5052081;28;20032;-73
2021/05/23 04:00:37;;;;;;;4.18;1.58;;;9.70;99.90;;;;;;5062079;28;20024;-73
2021/05/23 04:03:03;;;;;;;3.25;1.30;;;9.60;99.90;;;;;;5066773;28;20028;-73
2021/05/23 04:05:30;;;;;;;4.18;1.33;;;9.50;99.90;;;;;;5059605;28;20037;-73
2021/05/23 04:07:57;;;;;;;2.45;1.52;;;9.40;99.90;;;;;;5052663;28;20017;-75
2021/05/23 04:10:27;;;;;;;2.97;1.27;;;9.40;99.90;;;;;;5058788;28;20036;-73
2021/05/23 04:12:55;;;;;;;2.85;1.50;;;9.40;99.90;;;;;;5052884;28;20008;-73
2021/05/23 04:15:21;;;;;;;1.65;1.20;;;9.60;99.90;;;;;;5059469;28;20082;-73
2021/05/23 04:17:47;;;;;;;3.55;1.30;;;9.60;99.90;;;;;;5052844;28;20020;-73
2021/05/23 04:20:14;;;;;;;2.20;1.42;;;9.70;99.90;;;;;;5044905;28;20505;-74
2021/05/23 04:22:41;;;;;;;4.95;1.42;;;9.40;99.90;;;;;;5051426;28;20016;-73
2021/05/23 04:25:09;;;;;;;3.15;1.40;;;9.40;99.90;;;;;;5059412;28;20524;-74
2021/05/23 04:27:36;;;;;;;2.80;1.50;;;9.60;99.90;;;;;;5064547;28;20074;-73
2021/05/23 04:30:04;;;;;;;8.73;1.73;;;9.50;99.90;;;;;;5049586;28;20025;-73
2021/05/23 04:32:30;;;;;;;3.20;1.80;;;9.50;99.90;;;;;;5053920;28;20044;-73
2021/05/23 04:34:56;;;;;;;1.67;1.48;;;9.60;99.90;;;;;;5061104;28;20086;-73
2021/05/23 04:37:21;;;;;;;4.80;1.70;;;9.50;99.90;;;;;;5056698;28;20525;-74
2021/05/23 04:39:47;;;;;;;6.03;1.70;;;9.50;99.90;;;;;;5052700;28;20024;-74
2021/05/23 04:42:13;;;;;;;5.60;1.67;;;9.60;99.90;;;;;;5059118;28;20024;-74
2021/05/23 04:44:38;;;;;;;3.33;1.48;;;9.60;99.90;;;;;;5054726;28;20508;-73
2021/05/23 04:47:04;;;;;;;2.83;1.63;;;9.60;99.90;;;;;;5057447;28;20084;-73
2021/05/23 04:49:30;;;;;;;2.20;1.40;;;9.50;99.90;;;;;;5057599;28;20471;-74
2021/05/23 04:51:56;;;;;;;3.78;1.63;;;9.70;99.90;;;;;;5069207;28;20071;-73
2021/05/23 04:54:22;;;;;;;2.72;1.60;;;9.80;99.90;;;;;;5057845;28;20029;-73
2021/05/23 04:56:48;;;;;;;2.03;1.45;;;9.70;99.90;;;;;;5066401;28;20063;-73
2021/05/23 04:59:13;;;;;;;3.20;1.45;;;9.70;99.90;;;;;;5053740;28;20051;-75
2021/05/23 05:01:39;;;;;;;2.65;1.20;;;9.70;99.90;;;;;;5051073;28;20036;-73
2021/05/23 05:04:05;;;;;;;2.13;1.50;;;9.50;99.90;;;;;;5059635;28;20028;-73
2021/05/23 05:06:31;;;;;;;4.35;1.80;;;9.60;99.90;;;;;;5058687;28;20025;-74
2021/05/23 05:08:57;;;;;;;1.90;1.38;;;9.70;99.90;;;;;;5041755;28;20025;-74
2021/05/23 05:11:22;;;;;;;4.65;1.70;;;9.60;99.90;;;;;;5065507;28;20036;-74
2021/05/23 05:13:48;;;;;;;4.88;1.80;;;9.60;99.90;;;;;;5062002;28;20025;-75
2021/05/23 05:16:14;;;;;;;2.70;1.88;;;9.70;99.90;;;;;;5049648;28;20017;-75
2021/05/23 05:18:39;;;;;;;4.35;1.75;;;9.50;99.90;;;;;;5061244;28;20059;-74
2021/05/23 05:21:06;;;;;;;5.03;2.20;;;9.60;99.90;;;;;;5059667;28;20131;-75
2021/05/23 05:23:31;;;;;;;5.00;2.05;;;9.80;99.90;;;;;;5062338;28;20043;-74
2021/05/23 05:26:00;;;;;;;3.83;2.00;;;9.70;99.90;;;;;;5057746;28;20028;-75
2021/05/23 05:28:26;;;;;;;2.88;2.10;;;9.70;99.90;;;;;;5064853;28;20017;-75
2021/05/23 05:30:52;;;;;;;2.63;1.83;;;9.70;99.90;;;;;;5062925;28;20541;-74
2021/05/23 05:33:17;;;;;;;6.95;1.98;;;9.80;99.90;;;;;;5063335;28;20033;-75
2021/05/23 05:35:43;;;;;;;8.13;2.20;;;9.90;99.90;;;;;;5068961;28;20025;-74
2021/05/23 05:38:11;;;;;;;4.40;1.67;;;9.90;99.90;;;;;;5056723;28;20056;-74
2021/05/23 05:40:37;;;;;;;4.85;2.03;;;10.00;99.90;;;;;;5066625;28;20028;-75
2021/05/23 05:43:02;;;;;;;2.72;1.95;;;10.00;99.90;;;;;;5062842;28;20033;-74
2021/05/23 05:45:28;;;;;;;5.78;2.45;;;10.10;99.90;;;;;;5062604;28;20044;-73
2021/05/23 05:47:54;;;;;;;4.35;2.13;;;10.10;99.90;;;;;;5059541;28;20047;-74
2021/05/23 05:50:19;;;;;;;4.00;1.85;;;10.10;99.90;;;;;;5051041;28;20112;-74
2021/05/23 05:52:45;;;;;;;2.97;1.73;;;10.30;99.90;;;;;;5052601;28;20032;-74
2021/05/23 05:55:11;;;;;;;4.82;2.00;;;10.20;99.90;;;;;;5055992;28;20029;-74
2021/05/23 05:57:37;;;;;;;4.35;1.70;;;10.30;99.90;;;;;;5076139;28;22858;-72
2021/05/23 06:00:05;;;;;;;4.00;1.80;;;10.90;99.90;;;;;;5051221;28;20057;-71
2021/05/23 06:02:30;;;;;;;2.55;1.83;;;10.70;99.90;;;;;;5035328;28;20016;-71
2021/05/23 06:04:56;;;;;;;3.38;1.85;;;10.70;99.90;;;;;;5057145;28;20037;-71
2021/05/23 06:07:21;;;;;;;4.85;2.55;;;10.70;99.90;;;;;;5056297;28;20380;-71
2021/05/23 06:09:47;;;;;;;5.75;2.40;;;10.60;99.90;;;;;;5055524;28;20029;-72
2021/05/23 06:12:13;;;;;;;3.90;2.40;;;10.80;99.90;;;;;;5063853;28;20048;-70
2021/05/23 06:14:39;;;;;;;4.85;3.05;;;10.80;99.90;;;;;;5058990;28;20514;-70
2021/05/23 06:17:04;;;;;;;7.65;3.45;;;10.80;99.90;;;;;;5054505;28;20055;-70
2021/05/23 06:19:30;;;;;;;5.35;2.58;;;10.70;99.90;;;;;;5058420;28;20048;-69
2021/05/23 06:21:56;;;;;;;5.90;2.40;;;10.60;99.90;;;;;;5057649;28;20036;-70
2021/05/23 06:24:22;;;;;;;3.92;2.20;;;10.80;99.90;;;;;;5065093;28;20032;-71
2021/05/23 06:26:47;;;;;;;4.90;2.20;;;11.00;99.90;;;;;;5059344;28;20017;-70
2021/05/23 06:29:14;;;;;;;7.80;2.42;;;11.10;99.90;;;;;;5059471;28;20040;-70
2021/05/23 06:31:39;;;;;;;10.45;2.63;;;11.00;99.90;;;;;;5060439;28;20022;-70
2021/05/23 06:34:05;;;;;;;8.10;2.45;;;11.00;99.90;;;;;;5063433;28;20029;-71
2021/05/23 06:36:31;;;;;;;3.95;2.40;;;10.90;99.90;;;;;;5050923;28;20047;-70
2021/05/23 06:38:56;;;;;;;2.50;1.77;;;11.00;99.90;;;;;;5054036;28;20098;-71
2021/05/23 06:41:22;;;;;;;6.60;1.67;;;11.20;99.90;;;;;;5057218;28;20025;-71
2021/05/23 06:43:48;;;;;;;8.38;2.05;;;11.50;99.90;;;;;;5064744;28;20031;-70
2021/05/23 06:46:13;;;;;;;6.28;2.20;;;11.50;99.90;;;;;;5059864;28;20029;-72
2021/05/23 06:48:39;;;;;;;6.45;2.45;;;11.60;99.90;;;;;;5059924;28;20024;-71
2021/05/23 06:51:05;;;;;;;6.80;1.83;;;11.30;99.90;;;;;;5064863;28;20021;-71
2021/05/23 06:53:30;;;;;;;4.30;2.08;;;11.10;99.90;;;;;;5064663;28;20033;-71
2021/05/23 06:55:56;;;;;;;6.40;2.13;;;11.30;99.90;;;;;;5056458;28;20104;-71
2021/05/23 06:58:22;;;;;;;9.25;2.38;;;11.50;99.90;;;;;;5065480;28;20020;-71
2021/05/23 07:00:47;;;;;;;4.07;2.00;;;11.50;99.90;;;;;;5064565;28;20498;-71
2021/05/23 07:03:13;;;;;;;6.38;2.40;;;11.40;99.90;;;;;;5066680;28;20032;-70
2021/05/23 07:05:39;;;;;;;4.00;1.95;;;11.60;99.90;;;;;;5069539;28;20064;-71
2021/05/23 07:08:05;;;;;;;6.13;1.58;;;11.80;99.90;;;;;;5056307;28;20028;-71
2021/05/23 07:10:31;;;;;;;12.10;2.35;;;11.70;99.90;;;;;;5052963;28;20469;-71
2021/05/23 07:12:57;;;;;;;13.98;2.20;;;11.70;99.90;;;;;;5064562;28;20113;-71
2021/05/23 07:15:23;;;;;;;8.10;1.98;;;12.00;99.90;;;;;;5067850;28;20618;-71
2021/05/23 07:17:52;;;;;;;6.10;1.98;;;12.20;99.90;;;;;;5036688;28;20417;-71
2021/05/23 07:20:17;;;;;;;5.25;1.30;;;12.30;99.90;;;;;;5059868;28;20481;-72
2021/05/23 07:22:43;;;;;;;7.38;1.80;;;12.40;99.90;;;;;;5063718;28;20023;-71
2021/05/23 07:25:09;;;;;;;7.40;1.75;;;12.40;99.90;;;;;;5066286;28;20036;-71
2021/05/23 07:27:35;;;;;;;10.52;2.03;;;12.50;99.90;;;;;;5079461;28;20039;-71
2021/05/23 07:30:01;;;;;;;12.60;2.00;;;12.60;99.90;;;;;;5057175;28;20025;-71
2021/05/23 07:32:26;;;;;;;7.72;2.00;;;12.70;99.90;;;;;;5066427;28;20020;-72
2021/05/23 07:34:52;;;;;;;10.23;1.95;;;12.60;99.90;;;;;;5063101;28;20103;-72
2021/05/23 07:37:18;;;;;;;6.13;1.48;;;12.80;99.90;;;;;;5070480;28;20044;-72
2021/05/23 07:39:44;;;;;;;15.48;2.63;;;13.10;99.90;;;;;;5060396;28;20033;-71
2021/05/23 07:42:10;;;;;;;8.85;1.65;;;13.20;99.90;;;;;;5056260;28;20166;-72
2021/05/23 07:44:36;;;;;;;6.15;1.45;;;13.40;99.90;;;;;;5063699;28;20050;-72
2021/05/23 07:47:02;;;;;;;4.25;1.80;;;13.30;99.90;;;;;;5054934;28;20519;-72
2021/05/23 07:49:27;;;;;;;8.00;2.10;;;13.10;99.90;;;;;;5061925;28;20020;-71
2021/05/23 07:51:53;;;;;;;7.13;1.50;;;13.00;99.90;;;;;;5053282;28;20024;-72
2021/05/23 07:54:19;;;;;;;4.93;1.30;;;13.10;99.90;;;;;;5054261;28;20060;-71
2021/05/23 07:56:45;;;;;;;4.40;1.88;;;13.20;99.90;;;;;;5052989;28;20025;-71
2021/05/23 07:59:11;;;;;;;7.10;2.47;;;13.40;99.90;;;;;;5044849;28;20020;-69
2021/05/23 08:01:36;;;;;;;6.78;1.80;;;13.60;99.90;;;;;;5053742;28;20025;-71
2021/05/23 08:04:03;;;;;;;6.05;1.42;;;13.60;99.90;;;;;;5059918;28;20024;-72
2021/05/23 08:06:30;;;;;;;9.43;2.00;;;13.60;99.90;;;;;;5068583;28;20485;-71
2021/05/23 08:08:56;;;;;;;5.45;1.80;;;13.60;99.90;;;;;;5061914;28;20062;-71
2021/05/23 08:11:22;;;;;;;7.97;1.77;;;13.50;99.90;;;;;;5069303;28;20033;-71
2021/05/23 08:13:47;;;;;;;7.47;1.75;;;13.80;99.90;;;;;;5062290;28;20016;-71
2021/05/23 08:16:13;;;;;;;7.70;1.55;;;14.10;99.90;;;;;;5069779;28;20473;-71
2021/05/23 08:18:39;;;;;;;7.75;1.52;;;13.70;99.90;;;;;;5063853;28;20515;-71
2021/05/23 08:21:05;;;;;;;9.80;1.35;;;13.60;99.90;;;;;;5060556;28;20744;-71
2021/05/23 08:23:32;;;;;;;8.15;1.80;;;13.60;99.90;;;;;;5064194;28;20027;-71
2021/05/23 08:25:59;;;;;;;7.43;1.48;;;13.90;99.90;;;;;;5059756;28;20033;-71
2021/05/23 08:28:27;;;;;;;8.15;1.50;;;13.70;99.90;;;;;;5050436;28;20074;-71
2021/05/23 08:30:52;;;;;;;6.22;1.70;;;13.80;99.90;;;;;;5053567;28;20079;-71
2021/05/23 08:33:18;;;;;;;12.93;1.40;;;13.80;99.90;;;;;;5063677;28;20021;-71
2021/05/23 08:35:44;;;;;;;2.85;0.98;;;13.90;99.90;;;;;;5058699;28;20723;-71
2021/05/23 08:38:10;;;;;;;4.68;1.20;;;14.10;99.90;;;;;;5061840;28;20465;-71
2021/05/23 08:40:36;;;;;;;5.90;1.33;;;14.40;99.90;;;;;;5058315;28;20034;-71
2021/05/23 08:43:04;;;;;;;6.90;1.80;;;14.50;99.90;;;;;;5063468;28;20016;-71
2021/05/23 08:45:30;;;;;;;7.00;1.08;;;14.40;99.90;;;;;;5050700;28;20041;-71
2021/05/23 08:47:56;;;;;;;4.30;1.00;;;14.30;99.90;;;;;;5062798;28;20039;-72
2021/05/23 08:50:23;;;;;;;5.88;1.42;;;14.30;99.90;;;;;;5057433;28;20559;-72
2021/05/23 08:53:00;;;;;;;6.03;1.40;;;14.40;99.90;;;;;;5068123;28;20112;-72
2021/05/23 08:55:26;;;;;;;;;;;14.50;99.90;;;;;;5057601;28;20497;-71
2021/05/23 08:57:54;;;;;;;3.72;1.58;;;14.60;99.90;;;;;;5067506;28;19904;-71
2021/05/23 09:00:21;;;;;;;4.60;0.90;;;14.60;99.90;;;;;;5058991;28;20074;-72
2021/05/23 09:02:58;;;;;;;7.93;1.20;;;14.80;99.90;;;;;;5066363;28;20512;-72
2021/05/23 09:05:48;;;;;;;5.65;1.40;;;14.90;99.90;;;;;;5058347;28;20036;-71
2021/05/23 09:08:21;;;;;;;3.30;1.08;;;15.10;99.90;;;;;;5052249;28;20027;-71
2021/05/23 09:10:48;;;;;;;3.63;1.00;;;15.20;99.90;;;;;;5057858;28;20031;-71
2021/05/23 09:13:38;;;;;;;6.63;1.08;;;14.90;99.90;;;;;;5064682;28;20645;-72
2021/05/23 09:16:13;;;;;;;3.78;1.25;;;15.30;99.90;;;;;;5053733;28;20021;-72
2021/05/23 09:18:49;;;;;;;4.20;1.30;;;14.90;99.90;;;;;;5057740;28;20059;-71
2021/05/23 09:21:16;;;;;;;;;;;15.00;99.90;;;;;;5059804;28;20031;-72
2021/05/23 09:23:45;;;;;;;;;;;15.30;99.90;;;;;;5063518;28;19904;-72
2021/05/23 09:26:17;;;;;;;3.63;0.88;;;15.40;99.90;;;;;;5064280;28;19969;-71
2021/05/23 09:28:43;;;;;;;6.97;1.20;;;15.20;99.90;;;;;;5063108;28;20075;-71
2021/05/23 09:31:17;;;;;;;5.22;1.38;;;15.10;99.90;;;;;;5063053;28;20592;-71
2021/05/23 09:33:50;;;;;;;4.97;1.23;;;15.30;99.90;;;;;;5060314;28;20037;-71
2021/05/23 09:36:17;;;;;;;5.53;1.25;;;15.10;99.90;;;;;;5061419;28;20028;-71
2021/05/23 09:38:59;;;;;;;3.80;1.10;;;15.30;99.90;;;;;;5047855;28;20135;-71
2021/05/23 09:41:31;;;;;;;5.85;1.60;;;15.60;99.90;;;;;;5067716;28;20043;-71
2021/05/23 09:44:19;;;;;;;4.90;1.65;;;15.50;99.90;;;;;;5060325;28;20013;-71
2021/05/23 09:47:01;;;;;;;4.95;1.13;;;15.60;99.90;;;;;;5072188;28;20033;-71
2021/05/23 09:49:29;;;;;;;3.08;0.88;;;15.60;99.90;;;;;;5052830;28;20036;-72
2021/05/23 09:52:02;;;;;;;5.60;1.40;;;15.90;99.90;;;;;;5064949;28;20016;-71
2021/05/23 09:54:30;;;;;;;5.28;1.17;;;15.20;99.90;;;;;;5066465;28;20021;-71
2021/05/23 09:56:57;;;;;;;7.82;1.58;;;15.60;99.90;;;;;;5052856;28;20623;-71
2021/05/23 09:59:27;;;;;;;5.93;1.08;;;15.50;99.90;;;;;;5063701;28;20108;-72
2021/05/23 10:02:07;;;;;;;3.95;1.05;;;15.80;99.90;;;;;;5063348;28;20526;-71
2021/05/23 10:04:35;;;;;;;3.50;1.00;;;16.10;99.90;;;;;;5065332;28;20059;-72
2021/05/23 10:07:01;;;;;;;7.40;1.60;;;16.60;99.90;;;;;;5062950;28;20060;-72
2021/05/23 10:09:29;;;;;;;3.53;1.20;;;16.20;99.90;;;;;;5065307;28;20115;-72
2021/05/23 10:11:55;;;;;;;5.68;1.13;;;16.40;99.90;;;;;;5060957;28;20021;-71
2021/05/23 10:14:21;;;;;;;3.58;1.20;;;16.10;99.90;;;;;;5056798;28;20045;-71
2021/05/23 10:16:50;;;;;;;6.95;1.10;;;15.80;99.90;;;;;;5059515;28;20048;-71
2021/05/23 10:19:20;;;;;;;6.80;1.23;;;15.80;99.90;;;;;;5059561;28;20512;-72
2021/05/23 10:21:47;;;;;;;9.32;1.50;;;16.00;99.90;;;;;;5055739;28;20469;-71
2021/05/23 10:24:17;;;;;;;7.55;1.15;;;16.50;99.90;;;;;;5060379;28;20108;-71
2021/05/23 10:26:44;;;;;;;4.15;1.35;;;16.70;99.90;;;;;;5059977;28;20024;-72
2021/05/23 10:29:10;;;;;;;2.25;1.30;;;16.80;99.90;;;;;;5058673;28;20048;-72
2021/05/23 10:31:36;;;;;;;4.35;1.38;;;16.60;99.90;;;;;;5060016;28;20021;-71
2021/05/23 10:34:03;;;;;;;6.57;1.30;;;16.70;99.90;;;;;;5063276;28;20024;-71
2021/05/23 10:36:37;;;;;;;6.63;1.30;;;16.40;99.90;;;;;;5063334;28;20060;-71
2021/05/23 10:39:09;;;;;;;5.68;1.42;;;16.80;99.90;;;;;;5058609;28;20013;-71
2021/05/23 10:41:35;;;;;;;4.57;1.00;;;16.90;99.90;;;;;;5064166;28;20423;-71
2021/05/23 10:44:04;;;;;;;7.47;1.25;;;17.20;99.90;;;;;;5064343;28;20063;-71
2021/05/23 10:46:31;;;;;;;4.80;1.10;;;16.80;99.90;;;;;;5063839;28;20036;-71
2021/05/23 10:49:01;;;;;;;4.05;1.20;;;16.50;99.90;;;;;;5049976;28;20029;-71
2021/05/23 10:51:28;;;;;;;4.43;1.33;;;16.60;99.90;;;;;;5062242;28;20056;-71
2021/05/23 10:53:54;;;;;;;3.45;1.15;;;17.20;99.90;;;;;;5056003;28;20017;-71
2021/05/23 10:56:38;;;;;;;8.40;1.33;;;17.20;99.90;;;;;;5054575;28;20021;-71
2021/05/23 10:59:04;;;;;;;4.97;1.65;;;16.50;99.90;;;;;;5056710;28;20039;-71
2021/05/23 11:01:40;;;;;;;4.97;1.20;;;16.90;99.90;;;;;;5054303;28;20021;-71
2021/05/23 11:04:16;;;;;;;;;;;17.50;99.90;;;;;;5063482;28;20020;-71
2021/05/23 11:06:44;;;;;;;3.10;1.45;;;17.60;99.90;;;;;;5064204;28;19912;-71
2021/05/23 11:09:20;;;;;;;4.25;1.17;;;17.80;99.90;;;;;;5059479;28;20028;-71
2021/05/23 11:11:45;;;;;;;4.60;1.43;;;17.90;99.90;;;;;;5062184;28;20024;-71
2021/05/23 11:14:23;;;;;;;4.35;1.13;;;17.70;99.90;;;;;;5063954;28;20237;-71
2021/05/23 11:16:50;;;;;;;4.82;1.38;;;17.80;99.90;;;;;;5062577;28;20025;-70
2021/05/23 11:19:16;;;;;;;4.78;2.00;;;17.70;99.90;;;;;;5061727;28;20452;-71
2021/05/23 11:21:43;;;;;;;5.13;1.88;;;18.10;99.90;;;;;;5052062;28;20036;-71
2021/05/23 11:24:10;;;;;;;3.00;1.50;;;18.50;99.90;;;;;;5063699;28;20024;-70
2021/05/23 11:26:37;;;;;;;3.00;1.20;;;18.70;99.90;;;;;;5052924;28;20115;-71
2021/05/23 11:29:04;;;;;;;3.42;1.20;;;18.40;99.90;;;;;;5052617;28;20017;-71
2021/05/23 11:31:31;;;;;;;3.90;1.60;;;17.90;99.90;;;;;;5055408;28;20073;-71
2021/05/23 11:33:58;;;;;;;4.40;1.60;;;17.90;99.90;;;;;;5062149;28;20511;-70
2021/05/23 11:36:26;;;;;;;6.50;1.30;;;17.90;99.90;;;;;;5031251;28;741238;-71
2021/05/23 11:38:56;;;;;;;3.85;1.50;;;18.20;99.90;;;;;;5056528;28;20543;-70
2021/05/23 11:41:40;;;;;;;3.63;1.40;;;18.40;99.90;;;;;;5059787;28;20547;-71
2021/05/23 11:44:08;;;;;;;4.10;1.63;;;18.20;99.90;;;;;;5063161;28;20031;-71
2021/05/23 11:46:34;;;;;;;4.03;1.38;;;17.50;99.90;;;;;;5056720;28;20044;-71
2021/05/23 11:49:00;;;;;;;3.83;1.45;;;17.40;99.90;;;;;;5060199;28;20061;-71
2021/05/23 11:51:28;;;;;;;5.28;1.48;;;18.00;99.90;;;;;;5054718;28;20089;-71
2021/05/23 11:53:56;;;;;;;4.47;1.70;;;18.10;99.90;;;;;;5060704;28;20083;-71
2021/05/23 11:56:30;;;;;;;5.53;1.77;;;18.30;99.90;;;;;;5053070;28;20045;-71
2021/05/23 11:58:57;;;;;;;4.55;1.75;;;18.30;99.90;;;;;;5059762;28;20040;-71
2021/05/23 12:01:33;;;;;;;4.40;2.00;;;18.20;99.90;;;;;;5058768;28;20043;-72
2021/05/23 12:04:05;;;;;;;5.97;1.80;;;18.00;99.90;;;;;;5056630;28;20032;-71
2021/05/23 12:06:33;;;;;;;7.32;1.67;;;17.70;99.90;;;;;;5066276;28;20032;-71
2021/05/23 12:09:14;;;;;;;4.53;1.40;;;17.80;99.90;;;;;;5064523;28;20031;-71
2021/05/23 12:11:48;;;;;;;2.67;1.13;;;17.30;99.90;;;;;;5063195;28;20025;-72
2021/05/23 12:14:30;;;;;;;3.17;1.23;;;17.90;99.90;;;;;;5061978;28;20049;-71
2021/05/23 12:17:13;;;;;;;6.05;1.67;;;18.10;99.90;;;;;;5069215;28;20036;-71
2021/05/23 12:19:54;;;;;;;5.15;1.50;;;17.50;99.90;;;;;;5057648;28;20060;-71
2021/05/23 12:22:20;;;;;;;5.32;1.65;;;18.00;99.90;;;;;;5057286;28;20158;-71
2021/05/23 12:24:48;;;;;;;6.70;1.65;;;17.80;99.90;;;;;;5055477;28;20631;-71
2021/05/23 12:27:28;;;;;;;5.18;1.73;;;17.90;99.90;;;;;;5069610;28;20017;-71
2021/05/23 12:30:05;;;;;;;2.65;1.20;;;18.00;99.90;;;;;;5055777;28;20021;-72
2021/05/23 12:32:40;;;;;;;3.47;1.40;;;18.40;99.90;;;;;;5056480;28;20021;-71
2021/05/23 12:35:28;;;;;;;4.37;1.50;;;18.50;99.90;;;;;;5054684;28;20489;-71
2021/05/23 12:37:57;;;;;;;5.40;1.70;;;18.20;99.90;;;;;;5058146;28;20425;-71
2021/05/23 12:40:28;;;;;;;5.43;1.60;;;18.00;99.90;;;;;;5053572;28;20035;-71
2021/05/23 12:43:08;;;;;;;3.50;1.40;;;18.40;99.90;;;;;;5057306;28;20067;-71
2021/05/23 12:45:33;;;;;;;5.30;1.80;;;17.90;99.90;;;;;;5056821;28;20626;-71
2021/05/23 12:48:07;;;;;;;7.47;1.88;;;17.70;99.90;;;;;;5063670;28;20103;-71
2021/05/23 12:50:44;;;;;;;3.72;1.60;;;18.40;99.90;;;;;;5040858;28;20029;-73
2021/05/23 12:53:20;;;;;;;4.65;1.63;;;18.60;99.90;;;;;;5060418;28;20012;-71
2021/05/23 12:55:45;;;;;;;3.33;1.48;;;19.00;99.90;;;;;;5059408;28;20111;-71